Roosevelt Field, New York
Current Conditions -  °F | °C
As of 3:51 AM on Saturday 22 Nov 2014 (Local Time) from KJFK Reporting Station
Clear Clear  
Wind Chill: 22°   Ceiling: Unl
Heat Index: 30°   Visibility: 10mi
Dew Point: 12°   Wind: 9mph
Humidity: 47%   Direction: 260°W
Pressure: 30.5"   Gusts: NA
Location:  40.7256°N, 73.6474°W
Report Text: KJFK 220851Z 26008KT 10SM CLR M01/M11 A3050 RMK AO2 SLP327 T10111111 58006
Loading
Personal Weather Stations






























Interactive Weather Map New forecast layout! Learn more

10-Day Weather Forecast

Advertisements
Track Severe Weather on mobile